createdAt,value
2023-01-17T00:01:50.468Z,79.70
2023-01-17T00:04:36.027Z,79.70
2023-01-17T00:07:21.793Z,79.60
2023-01-17T00:09:55.967Z,79.60
2023-01-17T00:12:25.398Z,79.50
2023-01-17T00:14:54.502Z,80.40
2023-01-17T00:17:26.281Z,79.60
2023-01-17T00:20:12.535Z,80.40
2023-01-17T00:22:58.953Z,80.80
2023-01-17T00:25:50.801Z,80.90
2023-01-17T00:28:18.266Z,80.80
2023-01-17T00:30:45.859Z,80.60
2023-01-17T00:33:13.404Z,80.60
2023-01-17T00:35:40.691Z,80.50
2023-01-17T00:38:08.740Z,80.30
2023-01-17T00:40:38.009Z,80.40
2023-01-17T00:43:25.023Z,80.20
2023-01-17T00:46:11.537Z,80.20
2023-01-17T00:48:57.715Z,80.30
2023-01-17T00:51:44.693Z,79.90
2023-01-17T00:54:30.859Z,79.80
2023-01-17T00:57:16.541Z,79.60
2023-01-17T01:00:02.701Z,79.50
2023-01-17T01:02:48.628Z,79.40
2023-01-17T01:05:34.650Z,79.50
2023-01-17T01:08:21.274Z,79.70
2023-01-17T01:11:07.789Z,79.80
2023-01-17T01:13:53.375Z,79.90
2023-01-17T01:16:39.317Z,79.80
2023-01-17T01:19:25.108Z,79.90
2023-01-17T01:22:11.822Z,80.00
2023-01-17T01:24:57.640Z,80.30
2023-01-17T01:27:43.396Z,80.20
2023-01-17T01:30:29.911Z,80.30
2023-01-17T01:33:15.439Z,80.20
2023-01-17T01:35:42.964Z,80.20
2023-01-17T01:38:10.032Z,79.80
2023-01-17T01:40:46.365Z,79.60
2023-01-17T01:43:16.311Z,79.70
2023-01-17T01:45:49.521Z,79.50
2023-01-17T01:48:27.327Z,79.50
2023-01-17T01:50:54.754Z,79.60
2023-01-17T01:53:22.451Z,79.40
2023-01-17T01:55:52.204Z,79.50
2023-01-17T01:58:22.773Z,79.60
2023-01-17T02:00:50.354Z,79.60
2023-01-17T02:03:26.412Z,79.20
2023-01-17T02:05:53.623Z,79.70
2023-01-17T02:08:23.922Z,79.40
2023-01-17T02:10:51.079Z,79.30
2023-01-17T02:13:20.190Z,79.50
2023-01-17T02:16:07.512Z,79.40
2023-01-17T02:19:09.944Z,80.60
2023-01-17T02:22:15.024Z,81.30
2023-01-17T02:25:07.999Z,81.70
2023-01-17T02:28:06.492Z,82.00
2023-01-17T02:30:45.113Z,82.60
2023-01-17T02:33:18.608Z,82.70
2023-01-17T02:35:45.626Z,82.80
2023-01-17T02:38:26.680Z,82.90
2023-01-17T02:41:00.361Z,83.80
2023-01-17T02:43:27.654Z,83.30
2023-01-17T02:45:54.812Z,83.20
2023-01-17T02:48:26.249Z,82.90
2023-01-17T02:51:24.736Z,83.00
2023-01-17T02:54:32.037Z,83.10
2023-01-17T02:57:04.633Z,82.70
2023-01-17T02:59:57.666Z,82.10
2023-01-17T03:02:34.291Z,81.60
2023-01-17T03:05:08.884Z,81.80
2023-01-17T03:07:39.783Z,81.40
2023-01-17T03:10:08.025Z,81.20
2023-01-17T03:12:37.223Z,81.20
2023-01-17T03:15:10.469Z,81.10
2023-01-17T03:17:40.818Z,81.00
2023-01-17T03:20:08.663Z,80.70
2023-01-17T03:22:35.719Z,80.50
2023-01-17T03:25:02.840Z,80.40
2023-01-17T03:27:29.887Z,80.20
2023-01-17T03:29:57.189Z,80.10
2023-01-17T03:32:24.309Z,79.90
2023-01-17T03:34:51.362Z,79.90
2023-01-17T03:37:18.436Z,79.80
2023-01-17T03:39:45.507Z,79.70
2023-01-17T03:42:12.827Z,79.50
2023-01-17T03:44:39.910Z,79.50
2023-01-17T03:47:07.030Z,79.50
2023-01-17T03:49:34.085Z,79.30
2023-01-17T03:52:01.302Z,79.50
2023-01-17T03:54:28.354Z,80.70
2023-01-17T03:56:55.390Z,80.80
2023-01-17T03:59:22.487Z,81.10
2023-01-17T04:01:49.991Z,81.20
2023-01-17T04:04:17.155Z,81.60
2023-01-17T04:06:44.579Z,81.40
2023-01-17T04:09:11.645Z,81.80
2023-01-17T04:11:38.711Z,81.60
2023-01-17T04:14:05.838Z,82.00
2023-01-17T04:16:33.082Z,82.00
2023-01-17T04:19:00.156Z,82.00
2023-01-17T04:21:27.216Z,82.00
2023-01-17T04:23:54.251Z,81.90
2023-01-17T04:26:21.299Z,82.00
2023-01-17T04:28:48.443Z,81.60
2023-01-17T04:31:17.070Z,81.40
2023-01-17T04:33:44.236Z,81.20
2023-01-17T04:36:11.675Z,80.80
2023-01-17T04:38:38.715Z,81.00
2023-01-17T04:41:05.800Z,80.90
2023-01-17T04:43:32.875Z,81.10
2023-01-17T04:45:59.997Z,81.00
2023-01-17T04:48:27.447Z,80.90
2023-01-17T04:51:01.358Z,80.80
2023-01-17T04:53:28.605Z,80.90
2023-01-17T04:55:55.896Z,81.10
2023-01-17T04:58:23.144Z,81.10
2023-01-17T05:00:51.672Z,80.80
2023-01-17T05:03:20.036Z,80.50
2023-01-17T05:05:47.790Z,80.10
2023-01-17T05:08:15.332Z,80.30
2023-01-17T05:10:42.439Z,80.20
2023-01-17T05:13:09.522Z,80.50
2023-01-17T05:15:36.949Z,81.20
2023-01-17T05:18:08.419Z,81.50
2023-01-17T05:20:36.523Z,81.30
2023-01-17T05:23:03.708Z,81.10
2023-01-17T05:25:32.364Z,80.80
2023-01-17T05:28:00.130Z,81.10
2023-01-17T05:30:28.765Z,80.90
2023-01-17T05:32:57.579Z,80.80
2023-01-17T05:35:34.753Z,81.50
2023-01-17T05:38:02.351Z,82.20
2023-01-17T05:40:31.532Z,81.80
2023-01-17T05:43:00.240Z,80.90
2023-01-17T05:45:28.841Z,80.40
2023-01-17T05:47:56.867Z,80.80
2023-01-17T05:50:27.113Z,81.00
2023-01-17T05:52:56.848Z,80.90
2023-01-17T05:55:25.408Z,81.00
2023-01-17T05:57:52.867Z,80.20
2023-01-17T06:00:21.075Z,80.50
2023-01-17T06:02:48.562Z,81.10
2023-01-17T06:05:16.612Z,81.30
2023-01-17T06:07:45.651Z,80.60
2023-01-17T06:10:16.882Z,81.20
2023-01-17T06:12:45.299Z,80.50
2023-01-17T06:15:14.084Z,81.40
2023-01-17T06:17:41.230Z,81.60
2023-01-17T06:20:10.032Z,81.50
2023-01-17T06:22:37.120Z,81.10
2023-01-17T06:25:04.504Z,81.00
2023-01-17T06:27:31.575Z,80.90
2023-01-17T06:29:58.639Z,81.70
2023-01-17T06:32:25.718Z,81.70
2023-01-17T06:34:52.815Z,81.20
2023-01-17T06:37:19.883Z,80.80
2023-01-17T06:39:46.931Z,80.80
2023-01-17T06:42:14.000Z,80.60
2023-01-17T06:44:41.102Z,80.40
2023-01-17T06:47:08.162Z,80.50
2023-01-17T06:49:35.268Z,80.90
2023-01-17T06:52:02.336Z,80.80
2023-01-17T06:54:29.398Z,81.00
2023-01-17T06:56:56.529Z,80.60
2023-01-17T06:59:23.727Z,80.30
2023-01-17T07:01:50.816Z,80.30
2023-01-17T07:04:17.934Z,79.30
2023-01-17T07:06:45.039Z,79.20
2023-01-17T07:09:12.559Z,79.40
2023-01-17T07:11:39.625Z,78.40
2023-01-17T07:14:14.445Z,79.30
2023-01-17T07:16:45.848Z,79.10
2023-01-17T07:19:13.132Z,78.60
2023-01-17T07:21:40.639Z,78.30
2023-01-17T07:24:09.013Z,77.90
2023-01-17T07:26:37.927Z,78.30
2023-01-17T07:29:05.698Z,79.30
2023-01-17T07:31:38.283Z,79.50
2023-01-17T07:34:05.498Z,79.10
2023-01-17T07:36:33.284Z,79.20
2023-01-17T07:39:00.365Z,79.20
2023-01-17T07:41:27.560Z,79.50
2023-01-17T07:43:56.307Z,79.70
2023-01-17T07:46:23.712Z,79.70
2023-01-17T07:48:50.849Z,79.30
2023-01-17T07:51:17.930Z,79.20
2023-01-17T07:53:45.034Z,79.70
2023-01-17T07:56:12.067Z,80.00
2023-01-17T07:58:39.134Z,80.20
2023-01-17T08:01:08.980Z,80.40
2023-01-17T08:03:39.835Z,80.40
2023-01-17T08:06:17.221Z,80.40
2023-01-17T08:08:44.858Z,80.20
2023-01-17T08:11:11.957Z,80.10
2023-01-17T08:13:39.048Z,79.90
2023-01-17T08:16:06.585Z,79.70
2023-01-17T08:18:33.752Z,79.70
2023-01-17T08:21:00.908Z,79.40
2023-01-17T08:23:28.066Z,79.30
2023-01-17T08:26:00.145Z,79.90
2023-01-17T08:28:27.332Z,79.20
2023-01-17T08:30:54.443Z,79.10
2023-01-17T08:33:21.536Z,79.10
2023-01-17T08:35:53.335Z,79.20
2023-01-17T08:38:20.885Z,78.90
2023-01-17T08:40:47.968Z,78.80
2023-01-17T08:43:15.107Z,78.70
2023-01-17T08:45:45.314Z,78.30
2023-01-17T08:48:12.431Z,78.40
2023-01-17T08:50:41.939Z,78.80
2023-01-17T08:53:09.049Z,78.50
2023-01-17T08:55:39.495Z,78.10
2023-01-17T08:58:07.765Z,78.20
2023-01-17T09:00:34.987Z,78.30
2023-01-17T09:03:02.066Z,78.40
2023-01-17T09:05:29.159Z,78.30
2023-01-17T09:07:56.739Z,78.70
2023-01-17T09:10:23.944Z,78.40
2023-01-17T09:12:51.034Z,78.30
2023-01-17T09:15:20.111Z,78.30
2023-01-17T09:17:47.871Z,78.30
2023-01-17T09:20:14.966Z,78.10
2023-01-17T09:22:42.059Z,77.70
2023-01-17T09:25:09.334Z,77.90
2023-01-17T09:27:36.454Z,78.00
2023-01-17T09:30:04.464Z,78.00
2023-01-17T09:32:31.531Z,78.50
2023-01-17T09:35:00.615Z,78.40
2023-01-17T09:37:27.775Z,78.40
2023-01-17T09:39:54.815Z,78.30
2023-01-17T09:42:38.890Z,78.40
2023-01-17T09:45:16.290Z,78.30
2023-01-17T09:47:51.230Z,74.70
2023-01-17T09:50:27.307Z,71.10
2023-01-17T09:53:01.148Z,70.90
2023-01-17T09:55:39.875Z,72.00
2023-01-17T09:58:12.606Z,72.50
2023-01-17T10:00:47.144Z,71.00
2023-01-17T10:03:26.470Z,67.00
2023-01-17T10:06:21.333Z,69.40
2023-01-17T10:08:48.339Z,68.30
2023-01-17T10:11:43.937Z,67.90
2023-01-17T10:14:38.396Z,68.40
2023-01-17T10:17:27.064Z,65.50
2023-01-17T10:20:12.606Z,65.10
2023-01-17T10:22:54.689Z,66.50
2023-01-17T10:25:27.573Z,64.30
2023-01-17T10:28:00.028Z,64.20
2023-01-17T10:30:34.525Z,63.20
2023-01-17T10:33:12.495Z,63.90
2023-01-17T10:36:10.042Z,61.90
2023-01-17T10:38:38.999Z,62.80
2023-01-17T10:41:09.143Z,63.20
2023-01-17T10:44:01.772Z,62.80
2023-01-17T10:46:37.869Z,65.10
2023-01-17T10:49:05.044Z,66.70
2023-01-17T10:52:00.185Z,68.30
2023-01-17T10:54:39.901Z,69.80
2023-01-17T10:57:15.641Z,69.10
2023-01-17T10:59:44.045Z,69.80
2023-01-17T11:02:25.394Z,69.70
2023-01-17T11:04:54.955Z,70.00
2023-01-17T11:07:24.980Z,70.10
2023-01-17T11:09:54.746Z,70.30
2023-01-17T11:12:43.669Z,70.10
2023-01-17T11:15:10.684Z,69.70
2023-01-17T11:17:46.325Z,70.40
2023-01-17T11:20:23.455Z,69.70
2023-01-17T11:23:11.911Z,70.20
2023-01-17T11:25:39.050Z,70.30
2023-01-17T11:28:20.167Z,70.50
2023-01-17T11:30:56.109Z,70.00
2023-01-17T11:33:55.536Z,70.60
2023-01-17T11:36:27.244Z,70.50
2023-01-17T11:39:05.062Z,70.60
2023-01-17T11:41:38.991Z,71.10
2023-01-17T11:44:23.848Z,71.90
2023-01-17T11:47:12.939Z,72.00
2023-01-17T11:49:42.747Z,71.90
2023-01-17T11:52:24.249Z,72.00
2023-01-17T11:54:54.365Z,72.00
2023-01-17T11:57:27.823Z,71.90
2023-01-17T12:00:19.659Z,71.80
2023-01-17T12:03:15.281Z,71.80
2023-01-17T12:06:03.687Z,71.70
2023-01-17T12:08:43.042Z,71.60
2023-01-17T12:11:17.017Z,71.90
2023-01-17T12:14:02.327Z,71.80
2023-01-17T12:17:00.508Z,71.90
2023-01-17T12:20:06.124Z,71.60
2023-01-17T12:23:01.299Z,71.80
2023-01-17T12:25:49.199Z,71.80
2023-01-17T12:29:02.381Z,71.70
2023-01-17T12:31:38.702Z,71.80
2023-01-17T12:34:24.178Z,71.70
2023-01-17T12:37:03.658Z,71.40
2023-01-17T12:39:41.959Z,71.20
2023-01-17T12:42:21.323Z,71.20
2023-01-17T12:45:11.721Z,70.90
2023-01-17T12:47:44.480Z,71.10
2023-01-17T12:50:26.847Z,71.30
2023-01-17T12:53:16.495Z,71.40
2023-01-17T12:55:58.681Z,71.60
2023-01-17T12:58:30.360Z,71.10
2023-01-17T13:01:05.328Z,70.60
2023-01-17T13:03:47.446Z,71.40
2023-01-17T13:06:35.967Z,71.30
2023-01-17T13:09:04.867Z,70.90
2023-01-17T13:11:50.392Z,71.10
2023-01-17T13:14:17.523Z,71.50
2023-01-17T13:16:54.596Z,71.80
2023-01-17T13:19:36.816Z,72.20
2023-01-17T13:22:08.527Z,71.60
2023-01-17T13:25:03.642Z,71.70
2023-01-17T13:27:49.961Z,72.00
2023-01-17T13:30:32.361Z,72.20
2023-01-17T13:33:11.133Z,71.40
2023-01-17T13:35:58.037Z,72.10
2023-01-17T13:38:33.684Z,72.10
2023-01-17T13:41:09.952Z,72.00
2023-01-17T13:44:04.214Z,73.10
2023-01-17T13:46:32.368Z,71.90
2023-01-17T13:49:20.964Z,68.90
2023-01-17T13:52:12.120Z,67.00
2023-01-17T13:54:47.927Z,68.10
2023-01-17T13:57:29.765Z,68.70
2023-01-17T13:59:59.207Z,69.40
2023-01-17T14:02:32.160Z,69.50
2023-01-17T14:05:15.841Z,70.20
2023-01-17T14:07:47.795Z,71.00
2023-01-17T14:10:30.282Z,71.50
2023-01-17T14:12:58.826Z,72.30
2023-01-17T14:15:28.044Z,72.50
2023-01-17T14:17:59.057Z,72.70
2023-01-17T14:20:26.105Z,73.00
2023-01-17T14:22:55.894Z,73.40
2023-01-17T14:25:40.251Z,73.80
2023-01-17T14:28:22.682Z,74.10
2023-01-17T14:30:55.824Z,74.50
2023-01-17T14:33:34.649Z,74.80
2023-01-17T14:36:05.665Z,75.10
2023-01-17T14:38:34.635Z,75.20
2023-01-17T14:41:08.248Z,75.50
2023-01-17T14:43:42.235Z,75.70
2023-01-17T14:46:33.604Z,75.90
2023-01-17T14:49:04.184Z,76.10
2023-01-17T14:51:35.066Z,76.60
2023-01-17T14:54:05.159Z,75.80
2023-01-17T14:56:32.918Z,76.50
2023-01-17T14:59:17.032Z,76.40
2023-01-17T15:02:07.265Z,76.40
2023-01-17T15:04:39.154Z,76.60
2023-01-17T15:07:07.423Z,76.70
2023-01-17T15:09:38.364Z,76.60
2023-01-17T15:12:10.137Z,76.60
2023-01-17T15:14:41.592Z,76.50
2023-01-17T15:17:10.883Z,76.50
2023-01-17T15:19:43.443Z,76.60
2023-01-17T15:22:11.663Z,77.20
2023-01-17T15:24:43.918Z,76.50
2023-01-17T15:27:15.419Z,76.50
2023-01-17T15:29:44.847Z,76.50
2023-01-17T15:32:31.116Z,76.60
2023-01-17T15:35:01.734Z,77.30
2023-01-17T15:37:32.699Z,77.20
2023-01-17T15:40:12.197Z,77.00
2023-01-17T15:42:43.110Z,77.20
2023-01-17T15:45:20.207Z,76.70
2023-01-17T15:47:48.897Z,76.50
2023-01-17T15:50:29.899Z,76.60
2023-01-17T15:53:01.074Z,76.70
2023-01-17T15:55:37.281Z,76.90
2023-01-17T15:58:22.382Z,76.70
2023-01-17T16:00:49.579Z,76.70
2023-01-17T16:03:19.607Z,76.90
2023-01-17T16:05:47.603Z,77.10
2023-01-17T16:08:38.581Z,77.40
2023-01-17T16:11:08.276Z,77.10
2023-01-17T16:13:42.281Z,77.30
2023-01-17T16:16:23.904Z,78.00
2023-01-17T16:18:58.406Z,78.50
2023-01-17T16:21:28.016Z,79.00
2023-01-17T16:23:56.355Z,79.80
2023-01-17T16:26:24.354Z,80.00
2023-01-17T16:28:51.667Z,80.20
2023-01-17T16:31:19.246Z,80.60
2023-01-17T16:33:49.310Z,80.60
2023-01-17T16:36:16.815Z,81.00
2023-01-17T16:38:45.088Z,81.20
2023-01-17T16:41:12.680Z,81.10
2023-01-17T16:43:39.862Z,81.50
2023-01-17T16:46:07.396Z,82.00
2023-01-17T16:48:36.873Z,81.40
2023-01-17T16:51:07.877Z,81.40
2023-01-17T16:53:36.461Z,81.70
2023-01-17T16:56:12.097Z,81.90
2023-01-17T16:58:40.274Z,82.10
2023-01-17T17:01:16.096Z,82.20
2023-01-17T17:03:44.707Z,82.40
2023-01-17T17:06:12.480Z,82.30
2023-01-17T17:08:39.821Z,82.30
2023-01-17T17:11:14.442Z,83.00
2023-01-17T17:13:43.873Z,82.40
2023-01-17T17:16:32.753Z,82.50
2023-01-17T17:19:05.944Z,82.50
2023-01-17T17:21:34.965Z,82.30
2023-01-17T17:24:02.571Z,82.10
2023-01-17T17:26:34.390Z,82.50
2023-01-17T17:29:02.706Z,82.80
2023-01-17T17:31:29.923Z,82.70
2023-01-17T17:34:01.634Z,82.90
2023-01-17T17:36:29.439Z,82.90
2023-01-17T17:38:58.099Z,82.80
2023-01-17T17:41:30.801Z,82.80
2023-01-17T17:43:57.995Z,82.90
2023-01-17T17:46:27.172Z,83.20
2023-01-17T17:48:55.005Z,82.60
2023-01-17T17:51:26.664Z,82.40
2023-01-17T17:53:55.423Z,82.20
2023-01-17T17:56:23.572Z,82.10
2023-01-17T17:58:50.833Z,82.60
2023-01-17T18:01:18.071Z,82.50
2023-01-17T18:03:45.294Z,82.50
2023-01-17T18:06:13.213Z,82.60
2023-01-17T18:08:40.339Z,82.40
2023-01-17T18:11:14.777Z,82.60
2023-01-17T18:13:42.753Z,82.50
2023-01-17T18:16:14.691Z,82.40
2023-01-17T18:18:45.987Z,82.80
2023-01-17T18:21:17.559Z,82.60
2023-01-17T18:23:45.102Z,82.80
2023-01-17T18:26:18.388Z,82.80
2023-01-17T18:28:45.567Z,82.80
2023-01-17T18:31:12.815Z,83.20
2023-01-17T18:33:40.457Z,83.10
2023-01-17T18:36:09.298Z,83.70
2023-01-17T18:38:44.595Z,83.20
2023-01-17T18:41:14.235Z,83.70
2023-01-17T18:43:41.471Z,82.90
2023-01-17T18:46:09.991Z,82.90
2023-01-17T18:48:38.169Z,82.90
2023-01-17T18:51:07.492Z,82.80
2023-01-17T18:53:37.294Z,82.70
2023-01-17T18:56:07.379Z,82.80
2023-01-17T18:58:39.935Z,82.70
2023-01-17T19:01:35.842Z,82.60
2023-01-17T19:04:05.173Z,82.60
2023-01-17T19:06:34.972Z,82.50
2023-01-17T19:09:02.771Z,82.30
2023-01-17T19:11:30.020Z,82.50
2023-01-17T19:13:57.391Z,83.60
2023-01-17T19:16:30.062Z,83.00
2023-01-17T19:19:01.400Z,82.70
2023-01-17T19:21:28.963Z,82.40
2023-01-17T19:23:56.952Z,82.10
2023-01-17T19:26:27.051Z,81.60
2023-01-17T19:29:03.741Z,81.70
2023-01-17T19:31:35.694Z,81.60
2023-01-17T19:34:03.130Z,81.80
2023-01-17T19:36:36.586Z,81.40
2023-01-17T19:39:09.447Z,81.60
2023-01-17T19:41:41.232Z,82.00
2023-01-17T19:44:10.157Z,82.00
2023-01-17T19:46:37.840Z,82.00
2023-01-17T19:49:07.522Z,82.30
2023-01-17T19:51:35.763Z,82.80
2023-01-17T19:54:04.041Z,83.00
2023-01-17T19:56:31.598Z,83.00
2023-01-17T19:59:01.184Z,82.80
2023-01-17T20:01:31.244Z,83.10
2023-01-17T20:04:00.179Z,83.00
2023-01-17T20:06:31.912Z,83.10
2023-01-17T20:08:59.281Z,83.00
2023-01-17T20:11:27.752Z,82.80
2023-01-17T20:13:57.170Z,82.70
2023-01-17T20:16:26.084Z,82.70
2023-01-17T20:18:53.373Z,82.70
2023-01-17T20:21:25.928Z,82.40
2023-01-17T20:23:54.447Z,81.90
2023-01-17T20:26:30.890Z,81.90
2023-01-17T20:28:58.119Z,81.90
2023-01-17T20:31:26.549Z,81.80
2023-01-17T20:33:55.557Z,81.90
2023-01-17T20:36:25.234Z,81.60
2023-01-17T20:38:53.474Z,81.60
2023-01-17T20:41:25.807Z,81.60
2023-01-17T20:43:56.634Z,81.40
2023-01-17T20:46:26.854Z,81.30
2023-01-17T20:48:56.025Z,81.20
2023-01-17T20:51:25.885Z,81.20
2023-01-17T20:53:59.612Z,81.30
2023-01-17T20:56:27.507Z,81.40
2023-01-17T20:58:54.827Z,81.10
2023-01-17T21:01:23.214Z,81.20
2023-01-17T21:03:53.676Z,81.20
2023-01-17T21:06:22.568Z,82.00
2023-01-17T21:08:50.473Z,81.50
2023-01-17T21:11:20.875Z,81.70
2023-01-17T21:13:51.387Z,81.80
2023-01-17T21:16:21.260Z,81.80
2023-01-17T21:18:50.384Z,81.70
2023-01-17T21:21:22.776Z,81.50
2023-01-17T21:23:51.475Z,81.40
2023-01-17T21:26:19.871Z,81.30
2023-01-17T21:28:48.197Z,81.30
2023-01-17T21:31:24.443Z,81.60
2023-01-17T21:33:53.071Z,81.80
2023-01-17T21:36:21.666Z,81.80
2023-01-17T21:38:54.464Z,81.70
2023-01-17T21:41:28.535Z,81.90
2023-01-17T21:43:57.450Z,81.80
2023-01-17T21:46:25.191Z,81.80
2023-01-17T21:48:52.307Z,81.70
2023-01-17T21:51:19.742Z,81.60
2023-01-17T21:53:46.853Z,81.40
2023-01-17T21:56:33.220Z,81.20
2023-01-17T21:59:00.408Z,81.00
2023-01-17T22:01:32.021Z,80.90
2023-01-17T22:04:01.190Z,80.70
2023-01-17T22:06:30.828Z,80.50
2023-01-17T22:08:58.529Z,80.40
2023-01-17T22:11:27.290Z,80.30
2023-01-17T22:13:54.407Z,80.00
2023-01-17T22:16:24.228Z,79.90
2023-01-17T22:18:51.613Z,79.80
2023-01-17T22:21:20.969Z,80.20
2023-01-17T22:23:49.516Z,80.00
2023-01-17T22:26:17.020Z,79.70
2023-01-17T22:28:44.933Z,79.60
2023-01-17T22:31:13.417Z,79.70
2023-01-17T22:33:42.857Z,79.30
2023-01-17T22:36:13.463Z,79.20
2023-01-17T22:38:44.178Z,79.20
2023-01-17T22:41:15.900Z,79.60
2023-01-17T22:43:45.084Z,79.60
2023-01-17T22:46:15.077Z,79.80
2023-01-17T22:48:42.627Z,80.00
2023-01-17T22:51:14.771Z,79.90
2023-01-17T22:53:44.074Z,80.20
2023-01-17T22:56:19.900Z,80.30
2023-01-17T22:58:48.807Z,80.20
2023-01-17T23:01:24.557Z,80.40
2023-01-17T23:03:54.633Z,80.40
2023-01-17T23:06:27.670Z,81.60
2023-01-17T23:08:56.722Z,81.00
2023-01-17T23:11:44.928Z,81.30
2023-01-17T23:14:52.051Z,81.20
2023-01-17T23:17:42.360Z,81.40
2023-01-17T23:20:10.921Z,81.00
2023-01-17T23:22:38.127Z,81.30
2023-01-17T23:25:14.112Z,81.40
2023-01-17T23:28:06.002Z,81.60
2023-01-17T23:30:40.990Z,82.30
2023-01-17T23:33:10.088Z,82.00
2023-01-17T23:35:45.377Z,82.20
2023-01-17T23:38:26.384Z,82.40
2023-01-17T23:41:17.639Z,83.00
2023-01-17T23:43:45.039Z,83.20
2023-01-17T23:46:12.755Z,83.10
2023-01-17T23:48:39.832Z,83.40
2023-01-17T23:51:08.047Z,83.40
2023-01-17T23:53:36.716Z,82.90
2023-01-17T23:56:18.404Z,83.20
2023-01-17T23:58:46.003Z,83.50
